x

West Washington - 300nm West Of Aberdeen, Wa (46005) Wave Buoy

3:50pm - Thu 28th May 2015 All times are UTC.

  • Sig Wave height 6.9ft
  • Swell Direction
  • Peak Period 16s
  • Average Period 7s
  • Wind
    13mph, 18mph gusts
  • Sea Temp 56°f
  • Air Temp 54°f
  • Sea Pressure 1023.5mb

More Historic Weather Station data

Upgrade to MSW Pro to gain access to the past 30 days of data for over 8000 Wavebouys and Weather Stations around the globe.

Join Pro

Comparision Forecast

View Surf forecast
   
Thu 05/28 3:50pm 7ft 16s 7s 13 18 mph 1023.5mb 56f 54f
2:50pm 7ft 15s 7s 13 18 mph 1023.3mb 56f 54f
1:50pm 6ft 12s 6s 16 18 mph 1023mb 56f 54f
12:50pm 6.5ft 15s 7s 16 22 mph 1022.7mb 55f 53f
11:50am 6.5ft 13s 6s 16 22 mph 1022.8mb 55f 53f
10:50am 6ft 14s 7s 16 18 mph 1023.2mb 56f 53f
9:50am 6ft 13s 6s 16 20 mph 1023.1mb 56f 53f
8:50am 6ft 14s 7s 16 20 mph 1023.2mb 56f 53f
7:50am 6.5ft 12s 7s 16 20 mph 1023.3mb 56f 53f
6:50am 6.5ft 13s 7s 16 20 mph 1023mb 56f 53f
5:50am 6.5ft 15s 7s 18 20 mph 1022.9mb 56f 53f
4:50am 7ft 13s 7s 18 20 mph 1022.9mb 56f 53f
3:50am 7ft 13s 7s 13 18 mph 1022.4mb 56f 54f
2:50am 7ft 12s 7s 16 18 mph 1022.3mb 56f 54f
1:50am 6.5ft 14s 7s 13 18 mph 1022.6mb 56f 55f
12:50am 7ft 13s 7s 13 18 mph 1022.8mb 56f 55f
Wed 05/27 11:50pm 6.5ft 12s 7s 16 18 mph 1022.8mb 56f 55f
10:50pm 7ft 14s 7s 16 18 mph 1023.2mb 56f 54f
9:50pm 6.5ft 14s 7s 16 18 mph 1023.2mb 56f 55f
8:50pm 6.5ft 13s 7s 16 20 mph 1023.3mb 56f 53f
7:50pm 7ft 14s 7s 16 18 mph 1023.1mb 56f 53f
6:50pm 6.5ft 15s 7s 16 20 mph 1023.1mb 56f 53f
5:50pm 6.5ft 12s 7s 16 18 mph 1023.2mb 56f 53f
4:50pm 7.5ft 14s 8s 16 18 mph 1023.2mb 56f 53f
3:50pm 6ft 14s 7s 18 22 mph 1023.1mb 56f 53f
2:50pm 7ft 13s 7s 18 20 mph 1022.9mb 56f 53f
1:50pm 7ft 14s 7s 16 20 mph 1023mb 56f 53f
12:50pm 7ft 14s 7s 18 20 mph 1022.7mb 56f 53f
11:50am 6.5ft 13s 7s 13 18 mph 1022.9mb 56f 54f
10:50am 6.5ft 12s 7s 13 18 mph 1023.2mb 56f 54f
9:50am 7ft 15s 7s 13 18 mph 1023.3mb 56f 54f
8:50am 7ft 14s 7s 16 20 mph 1023.4mb 56f 54f
7:50am 7ft 14s 7s 16 18 mph 1023.3mb 56f 55f
6:50am 7ft 13s 7s 13 18 mph 1023.4mb 56f 54f
5:50am 7ft 15s 7s 16 20 mph 1023.4mb 56f 55f
4:50am 6ft 13s 7s 16 20 mph 1022.7mb 56f 55f
3:50am 7ft 12s 7s 18 22 mph 1022.6mb 56f 54f
2:50am 7ft 12s 7s 18 20 mph 1022.8mb 56f 55f
1:50am 6ft 13s 7s 16 20 mph 1022.9mb 56f 54f
12:50am 6ft 13s 6s 16 20 mph 1023mb 56f 55f
Tue 05/26 11:50pm 6ft 12s 7s 16 18 mph 1023.3mb 56f 55f
10:50pm 6ft 13s 6s 16 18 mph 1023.5mb 56f 55f
9:50pm 6ft 16s 6s 16 18 mph 1023.7mb 56f 55f
8:50pm 6ft 16s 7s 16 18 mph 1023.8mb 56f 54f
7:50pm 6ft 16s 6s 16 20 mph 1023.5mb 56f 54f
6:50pm 5.5ft 16s 6s 13 18 mph 1023.4mb 56f 54f
5:50pm 5ft 15s 6s 18 22 mph 1023mb 56f 54f
4:50pm 5ft 16s 6s 16 22 mph 1022.7mb 56f 54f
3:50pm 5ft 16s 6s 16 22 mph 1022.7mb 56f 54f
2:50pm 4.5ft 17s 6s 18 20 mph 1022.2mb 56f 54f
1:50pm 5ft 16s 7s 13 16 mph 1022mb 56f 54f
12:50pm 4.5ft 16s 6s 13 18 mph 1021.8mb 56f 54f
11:50am 4.5ft 17s 6s 13 16 mph 1021.9mb 56f 55f
10:50am 4.5ft 17s 6s 11 13 mph 1022.2mb 56f 54f
9:50am 4.5ft 17s 6s 11 13 mph 1022.3mb 56f 54f
8:50am 4.5ft 17s 6s 13
mph
1022.3mb 56f 54f
7:50am 4.5ft 17s 6s 13 16 mph 1022.2mb 56f 54f
6:50am 5ft 17s 6s 13 16 mph 1021.9mb 56f 54f
5:50am 5ft 6s 6s 13 16 mph 1021.9mb 56f 55f
4:50am 5ft 17s 6s 13 16 mph 1021.4mb 56f 55f
3:50am 5ft 7s 6s 13 16 mph 1021.3mb 56f 55f
2:50am 4.5ft 10s 6s 13 16 mph 1021.5mb 56f 55f
1:50am 4.5ft 10s 6s 16 18 mph 1021.6mb 56f 56f
12:50am 5ft 7s 6s 13 16 mph 1021.9mb 56f 55f
Mon 05/25 11:50pm 5ft 10s 7s 13 16 mph 1022mb 56f 56f
10:50pm 4.5ft 6s 7s 11 16 mph 1022.3mb 56f 56f
9:50pm 5ft 7s 7s 11 13 mph 1022.3mb 56f 56f
8:50pm 5ft 6s 6s 9
mph
1022.4mb 56f 55f
7:50pm 4.5ft 7s 6s 9
mph
1022.4mb 56f 55f
6:50pm 5ft 11s 6s 4 7 mph 1022.3mb 56f 55f
5:50pm 5ft 7s 6s 7 9 mph 1022.2mb 55f 55f
4:50pm 5ft 11s 6s 7 9 mph 1022.2mb 55f 55f
3:50pm 5ft 6s 6s 11
mph
1022.2mb 55f 54f
2:50pm 5.5ft 7s 6s 11 16 mph 1022.2mb 55f 54f
1:50pm 5.5ft 6s 6s 16 20 mph 1022.3mb 55f 54f
12:50pm 5.5ft 6s 6s 16 20 mph 1022.2mb 55f 54f
11:50am 5.5ft 10s 6s 16 18 mph 1022.1mb 55f 54f
10:50am 5.5ft 11s 6s 16 18 mph 1022.4mb 55f 54f
9:50am 6ft 10s 6s 18 20 mph 1022.4mb 55f 54f
8:50am 5.5ft 10s 6s 18 20 mph 1022.9mb 55f 54f
7:50am 6ft 11s 6s 16 18 mph 1023.2mb 55f 54f
6:50am 5ft 11s 6s 20 25 mph 1023.4mb 55f 54f
5:50am 5.5ft 11s 6s 18 20 mph 1023.6mb 55f 54f
4:50am 5ft 11s 6s 16 20 mph 1023.6mb 55f 54f
3:50am 5ft 11s 6s 16 22 mph 1023.4mb 56f 54f
2:50am 5ft 11s 6s 16 18 mph 1023.8mb 56f 55f
1:50am 5.5ft 11s 6s 16 20 mph 1023.8mb 56f 54f
12:50am 5ft 11s 6s 13 18 mph 1024.3mb 56f 55f
Sun 05/24 11:50pm 5ft 11s 6s 18 20 mph 1024.6mb 56f 54f
10:50pm 5.5ft 11s 6s 16 18 mph 1025mb 55f 54f
9:50pm 5ft 11s 6s 13
mph
1025.6mb 55f 53f
8:50pm 5.5ft 11s 6s 16 20 mph 1025.8mb 55f 54f
7:50pm 5ft 8s 6s 16 18 mph 1026mb 55f 54f
6:50pm 5ft 11s 6s 13 16 mph 1026.3mb 55f 55f
5:50pm 6ft 12s 7s 11 16 mph 1026.6mb 55f 55f